Time;durP1;ratioP1;P1;durP2;ratioP2;P2;SDS_P1;SDS_P2;PMS_P1;PMS_P2;Temp;Humidity;BMP_temperature;BMP_pressure;BME280_temperature;BME280_humidity;BME280_pressure;Samples;Min_cycle;Max_cycle;Signal;HPM_P1;HPM_P2
2021/03/18 00:01:19;;;;;;;7.23;3.00;;;;;;;-1.88;87.15;92473.18;1764773;81;21569;-77
2021/03/18 00:03:49;;;;;;;3.93;3.43;;;;;;;-1.89;87.76;92483.60;1764435;81;21813;-75
2021/03/18 00:06:17;;;;;;;4.83;3.13;;;;;;;-1.88;87.54;92484.38;1764427;81;21087;-76
2021/03/18 00:08:45;;;;;;;3.30;3.00;;;;;;;-1.87;88.02;92488.61;1763017;81;21181;-75
2021/03/18 00:11:18;;;;;;;3.57;3.27;;;;;;;-1.89;88.08;92484.16;1763082;79;21214;-75
2021/03/18 00:13:46;;;;;;;3.37;3.00;;;;;;;-1.91;87.88;92483.18;1763058;80;21173;-76
2021/03/18 00:16:16;;;;;;;3.63;3.33;;;;;;;-1.93;87.83;92485.95;1763110;81;22621;-76
2021/03/18 00:18:52;;;;;;;4.97;3.90;;;;;;;-1.98;87.74;92485.09;1763001;81;21186;-75
2021/03/18 00:21:21;;;;;;;4.77;3.63;;;;;;;-1.94;87.82;92492.41;1763888;81;21130;-75
2021/03/18 00:23:50;;;;;;;3.63;3.33;;;;;;;-1.91;87.96;92497.06;1764093;81;21126;-74
2021/03/18 00:26:25;;;;;;;4.17;3.67;;;;;;;-1.91;87.83;92495.17;1764395;81;21059;-76
2021/03/18 00:28:55;;;;;;;5.57;3.93;;;;;;;-1.90;88.11;92486.05;1764323;81;21506;-76
2021/03/18 00:31:25;;;;;;;4.30;3.90;;;;;;;-1.87;88.23;92485.37;1764304;81;21083;-76
2021/03/18 00:33:53;;;;;;;4.67;4.10;;;;;;;-1.85;88.18;92489.03;1769664;78;21509;-76
2021/03/18 00:36:22;;;;;;;4.80;4.03;;;;;;;-1.83;87.96;92485.48;1823051;77;21571;-74
2021/03/18 00:38:50;;;;;;;5.33;4.10;;;;;;;-1.80;88.04;92479.47;1780646;78;21548;-77
2021/03/18 00:41:19;;;;;;;8.57;4.40;;;;;;;-1.80;87.82;92479.47;1775492;80;21370;-77
2021/03/18 00:43:47;;;;;;;5.03;4.07;;;;;;;-1.79;87.68;92481.02;1775389;80;21113;-75
2021/03/18 00:46:16;;;;;;;6.63;4.63;;;;;;;-1.81;87.74;92478.67;1775990;79;21065;-75
2021/03/18 00:48:45;;;;;;;9.57;5.37;;;;;;;-1.80;87.79;92482.14;1777769;80;21049;-75
2021/03/18 00:51:16;;;;;;;5.87;4.50;;;;;;;-1.78;87.94;92483.89;1773424;79;21076;-77
2021/03/18 00:53:48;;;;;;;6.23;4.77;;;;;;;-1.80;87.57;92482.91;1791599;79;21333;-75
2021/03/18 00:56:20;;;;;;;6.90;4.77;;;;;;;-1.82;87.90;92482.46;1791284;78;21082;-77
2021/03/18 00:58:51;;;;;;;3.73;3.43;;;;;;;-1.81;88.14;92475.23;1791370;80;21115;-77
2021/03/18 01:01:24;;;;;;;5.63;3.83;;;;;;;-1.81;87.91;92473.34;1791268;79;21071;-76
2021/03/18 01:03:52;;;;;;;6.80;4.43;;;;;;;-1.83;87.50;92468.16;1790971;80;21138;-77
2021/03/18 01:06:28;;;;;;;7.07;4.73;;;;;;;-1.81;87.57;92468.02;1784701;80;21361;-75
2021/03/18 01:08:58;;;;;;;3.77;3.37;;;;;;;-1.78;87.76;92466.00;1809938;78;21056;-77
2021/03/18 01:11:31;;;;;;;4.43;3.90;;;;;;;-1.76;87.57;92466.45;1789990;79;21487;-76
2021/03/18 01:14:01;;;;;;;6.53;4.50;;;;;;;-1.74;87.31;92460.20;1820476;77;21577;-75
2021/03/18 01:16:34;;;;;;;8.83;4.80;;;;;;;-1.71;87.22;92464.09;1822606;78;21092;-75
2021/03/18 01:19:04;;;;;;;6.50;4.63;;;;;;;-1.71;87.36;92459.53;1822286;78;21368;-77
2021/03/18 01:21:43;;;;;;;6.93;4.20;;;;;;;-1.66;87.45;92460.39;1822496;78;21064;-77
2021/03/18 01:24:11;;;;;;;5.13;4.53;;;;;;;-1.63;87.41;92463.72;1822439;78;21103;-76
2021/03/18 01:26:40;;;;;;;5.33;3.93;;;;;;;-1.63;87.22;92460.48;1822610;78;21116;-76
2021/03/18 01:29:07;;;;;;;4.50;4.00;;;;;;;-1.65;87.01;92456.63;1822659;78;21060;-77
2021/03/18 01:31:36;;;;;;;4.03;3.37;;;;;;;-1.67;87.09;92456.19;1822507;78;22348;-76
2021/03/18 01:34:04;;;;;;;4.20;3.90;;;;;;;-1.68;86.82;92457.31;1822261;78;21498;-77
2021/03/18 01:36:35;;;;;;;4.93;4.03;;;;;;;-1.69;86.62;92463.73;1811398;79;21107;-77
2021/03/18 01:39:05;;;;;;;5.03;3.87;;;;;;;-1.68;86.80;92466.08;1811279;79;21088;-76
2021/03/18 01:41:33;;;;;;;4.70;4.10;;;;;;;-1.67;87.02;92458.86;1788947;79;21064;-76
2021/03/18 01:44:03;;;;;;;5.30;4.80;;;;;;;-1.66;86.72;92451.06;1788825;77;21829;-77
2021/03/18 01:46:31;;;;;;;4.30;3.83;;;;;;;-1.64;86.86;92462.95;1803895;79;21093;-77
2021/03/18 01:49:00;;;;;;;6.60;4.43;;;;;;;-1.66;86.53;92459.83;1780717;80;21180;-76
2021/03/18 01:51:28;;;;;;;6.27;5.10;;;;;;;-1.68;86.73;92458.64;1774531;79;21211;-75
2021/03/18 01:53:56;;;;;;;5.93;4.60;;;;;;;-1.69;87.07;92458.41;1799536;78;21053;-76
2021/03/18 01:56:24;;;;;;;5.13;4.20;;;;;;;-1.69;87.23;92461.07;1825832;77;21210;-75
2021/03/18 01:58:52;;;;;;;6.57;4.30;;;;;;;-1.69;87.39;92457.08;1841418;77;21559;-78
2021/03/18 02:01:20;;;;;;;6.27;4.47;;;;;;;-1.70;87.40;92468.30;1815498;79;21116;-75
2021/03/18 02:03:49;;;;;;;4.77;3.90;;;;;;;-1.79;87.44;92462.36;1799210;79;21594;-77
2021/03/18 02:06:17;;;;;;;4.87;3.73;;;;;;;-1.83;87.86;92462.83;1798907;79;21136;-77
2021/03/18 02:08:46;;;;;;;3.47;3.17;;;;;;;-1.84;88.00;92471.91;1776777;79;21366;-78
2021/03/18 02:11:14;;;;;;;4.17;3.63;;;;;;;-1.86;87.25;92456.28;1791673;79;21148;-76
2021/03/18 02:13:42;;;;;;;3.90;3.43;;;;;;;-1.86;87.39;92469.60;1788620;78;21056;-75
2021/03/18 02:16:11;;;;;;;3.73;3.43;;;;;;;-1.85;87.67;92465.05;1813520;79;21096;-76
2021/03/18 02:19:16;;;;;;;4.43;3.77;;;;;;;-1.89;87.83;92466.84;1778030;80;21228;-77
2021/03/18 02:22:16;;;;;;;4.17;3.77;;;;;;;-1.87;87.74;92472.62;1849441;76;21800;-75
2021/03/18 02:25:12;;;;;;;6.13;4.50;;;;;;;-1.87;87.48;92462.73;1831353;78;21064;-76
2021/03/18 02:28:14;;;;;;;4.07;3.53;;;;;;;-1.84;87.55;92472.72;1797070;78;21629;-77
2021/03/18 02:31:07;;;;;;;4.87;3.83;;;;;;;-1.84;87.32;92475.38;1820688;78;21151;-74
2021/03/18 02:34:07;;;;;;;4.27;3.87;;;;;;;-1.86;87.37;92474.16;1822454;78;21051;-77
2021/03/18 02:36:57;;;;;;;3.50;3.20;;;;;;;-1.88;87.34;92468.38;1818725;78;21650;-76
2021/03/18 02:39:31;;;;;;;3.50;3.20;;;;;;;-1.88;87.32;92475.05;1813346;78;21071;-75
2021/03/18 02:42:05;;;;;;;4.40;4.00;;;;;;;-1.92;87.45;92468.28;1822422;78;21135;-75
2021/03/18 02:44:33;;;;;;;4.53;4.03;;;;;;;-1.91;87.40;92466.42;1822702;78;21044;-76
2021/03/18 02:47:05;;;;;;;4.53;4.00;;;;;;;-1.91;87.52;92481.08;1822578;78;21119;-75
2021/03/18 02:49:39;;;;;;;5.57;4.40;;;;;;;-1.92;87.71;92476.28;1822410;77;21358;-76
2021/03/18 02:52:07;;;;;;;5.40;3.93;;;;;;;-1.89;87.60;92475.61;1822546;78;21056;-80
2021/03/18 02:54:35;;;;;;;4.07;3.40;;;;;;;-1.88;87.44;92479.84;1822581;78;21534;-75
2021/03/18 02:57:04;;;;;;;3.57;2.90;;;;;;;-1.90;87.20;92477.29;1822410;78;21048;-75
2021/03/18 02:59:39;;;;;;;4.07;3.40;;;;;;;-1.92;87.32;92470.95;1803613;76;21122;-77
2021/03/18 03:02:11;;;;;;;5.00;3.60;;;;;;;-1.91;87.28;92479.74;1858208;76;21094;-76
2021/03/18 03:04:39;;;;;;;3.20;2.90;;;;;;;-1.91;87.62;92480.52;1835693;78;21144;-78
2021/03/18 03:07:08;;;;;;;3.00;2.73;;;;;;;-1.92;87.04;92482.17;1836759;78;21041;-76
2021/03/18 03:09:36;;;;;;;3.20;2.90;;;;;;;-1.94;87.06;92481.75;1835753;78;21171;-77
2021/03/18 03:12:05;;;;;;;4.17;2.57;;;;;;;-1.96;87.05;92494.86;1836775;77;21460;-78
2021/03/18 03:14:33;;;;;;;3.47;3.17;;;;;;;-1.98;86.84;92481.66;1836848;77;21518;-76
2021/03/18 03:17:01;;;;;;;3.53;3.23;;;;;;;-2.02;86.90;92492.21;1836684;77;21069;-76
2021/03/18 03:19:30;;;;;;;3.83;3.40;;;;;;;-2.04;87.13;92494.42;1836912;78;21072;-76
2021/03/18 03:21:58;;;;;;;3.53;3.23;;;;;;;-2.03;87.38;92503.19;1836619;78;21227;-76
2021/03/18 03:24:27;;;;;;;3.80;3.30;;;;;;;-2.01;87.47;92490.31;1836634;78;21151;-76
2021/03/18 03:26:55;;;;;;;4.33;3.10;;;;;;;-2.00;87.21;92505.95;1825574;77;21850;-77
2021/03/18 03:29:23;;;;;;;6.13;3.30;;;;;;;-1.99;87.05;92508.86;1816627;79;21087;-77
2021/03/18 03:31:51;;;;;;;4.90;3.60;;;;;;;-1.99;87.08;92508.09;1816720;79;21120;-80
2021/03/18 03:34:19;;;;;;;4.07;3.63;;;;;;;-2.04;86.49;92503.75;1817108;79;21123;-78
2021/03/18 03:36:48;;;;;;;3.57;3.27;;;;;;;-2.12;86.51;92503.34;1816950;79;21051;-78
2021/03/18 03:39:17;;;;;;;4.87;3.83;;;;;;;-2.15;86.57;92500.57;1816985;79;22312;-79
2021/03/18 03:41:44;;;;;;;4.60;3.60;;;;;;;-2.22;87.69;92499.80;1816877;79;21056;-76
2021/03/18 03:44:12;;;;;;;4.00;3.57;;;;;;;-2.26;87.87;92494.41;1816933;79;21199;-77
2021/03/18 03:46:41;;;;;;;4.97;3.80;;;;;;;-2.28;88.26;92501.17;1817226;79;21099;-78
2021/03/18 03:49:10;;;;;;;5.37;4.17;;;;;;;-2.30;88.40;92503.38;1816966;79;21187;-78
2021/03/18 03:51:59;;;;;;;4.83;3.57;;;;;;;-2.31;88.82;92499.17;1816948;79;21606;-81
2021/03/18 03:54:27;;;;;;;6.80;4.47;;;;;;;-2.34;88.10;92505.94;1798022;79;21048;-80
2021/03/18 03:57:10;;;;;;;5.37;3.97;;;;;;;-2.40;88.68;92505.20;1808533;79;21060;-80
2021/03/18 03:59:39;;;;;;;3.93;3.53;;;;;;;-2.38;89.14;92506.95;1806509;78;21053;-79
2021/03/18 04:02:07;;;;;;;3.83;3.43;;;;;;;-2.40;88.92;92498.55;1806524;78;21045;-79
2021/03/18 04:04:47;;;;;;;3.60;3.30;;;;;;;-2.42;89.06;92516.17;1817036;79;21792;-79
2021/03/18 04:07:18;;;;;;;6.87;3.43;;;;;;;-2.44;88.90;92511.75;1816852;79;21608;-81
2021/03/18 04:09:47;;;;;;;4.13;3.53;;;;;;;-2.41;88.46;92511.61;1817010;77;21048;-79
2021/03/18 04:12:20;;;;;;;4.80;4.13;;;;;;;-2.39;88.46;92514.17;1828436;78;21037;-81
2021/03/18 04:14:57;;;;;;;3.90;3.20;;;;;;;-2.41;88.00;92515.61;1829793;78;21096;-79
2021/03/18 04:17:25;;;;;;;4.27;3.67;;;;;;;-2.40;88.26;92519.84;1821126;76;22235;-79
2021/03/18 04:19:56;;;;;;;6.23;4.13;;;;;;;-2.45;87.75;92519.50;1837342;77;21077;-83
2021/03/18 04:22:24;;;;;;;5.10;3.97;;;;;;;-2.46;88.08;92520.05;1817090;79;21029;-79
2021/03/18 04:24:52;;;;;;;3.97;3.57;;;;;;;-2.47;87.89;92521.73;1827574;78;21562;-80
2021/03/18 04:27:20;;;;;;;4.17;3.23;;;;;;;-2.48;87.94;92525.52;1817733;77;21107;-80
2021/03/18 04:29:48;;;;;;;7.13;4.17;;;;;;;-2.46;87.82;92528.05;1817072;78;22108;-84
2021/03/18 04:32:19;;;;;;;5.20;4.07;;;;;;;-2.48;86.88;92536.16;1819568;78;21175;-84
2021/03/18 04:34:51;;;;;;;6.00;4.83;;;;;;;-2.56;87.05;92527.16;1836947;77;21174;-79
2021/03/18 04:37:19;;;;;;;6.67;5.00;;;;;;;-2.62;87.76;92531.73;1834027;77;21144;-80
2021/03/18 04:39:47;;;;;;;6.90;5.03;;;;;;;-2.64;87.68;92533.38;1826805;78;21052;-81
2021/03/18 04:42:15;;;;;;;5.87;4.70;;;;;;;-2.66;87.57;92536.95;1818031;77;21354;-83
2021/03/18 04:44:44;;;;;;;4.40;4.00;;;;;;;-2.66;87.36;92534.28;1820860;77;21068;-81
2021/03/18 04:47:17;;;;;;;5.30;4.50;;;;;;;-2.65;87.45;92537.16;1830540;78;21638;-81
2021/03/18 04:49:45;;;;;;;6.90;4.83;;;;;;;-2.63;87.51;92547.46;1817207;79;21041;-80
2021/03/18 04:52:15;;;;;;;5.30;4.50;;;;;;;-2.64;87.40;92541.36;1829670;78;21487;-79
2021/03/18 04:54:44;;;;;;;5.50;4.27;;;;;;;-2.62;87.43;92543.71;1821845;78;21367;-80
2021/03/18 04:57:12;;;;;;;5.10;4.47;;;;;;;-2.59;86.97;92539.06;1817060;79;21148;-80
2021/03/18 04:59:41;;;;;;;5.77;3.97;;;;;;;-2.58;87.12;92548.59;1821706;76;21484;-78
2021/03/18 05:02:10;;;;;;;7.40;4.90;;;;;;;-2.56;87.28;92544.46;1837458;78;21108;-79
2021/03/18 05:04:38;;;;;;;4.70;4.30;;;;;;;-2.54;86.91;92542.81;1834062;78;21467;-80
2021/03/18 05:07:06;;;;;;;5.03;3.93;;;;;;;-2.52;86.55;92548.56;1820622;78;21414;-81
2021/03/18 05:09:34;;;;;;;4.83;4.33;;;;;;;-2.52;86.43;92549.89;1817149;78;21064;-81
2021/03/18 05:12:02;;;;;;;4.53;4.13;;;;;;;-2.53;86.41;92541.14;1817064;79;21135;-83
2021/03/18 05:14:30;;;;;;;4.97;3.93;;;;;;;-2.53;85.91;92543.03;1819329;78;21127;-81
2021/03/18 05:16:58;;;;;;;3.53;3.23;;;;;;;-2.58;86.61;92540.60;1837615;78;21481;-80
2021/03/18 05:19:27;;;;;;;3.90;3.50;;;;;;;-2.56;86.49;92544.46;1834206;77;21362;-80
2021/03/18 05:21:55;;;;;;;5.20;4.20;;;;;;;-2.55;86.75;92552.69;1822296;78;21491;-80
2021/03/18 05:24:23;;;;;;;4.20;3.90;;;;;;;-2.51;86.74;92551.47;1823574;78;21080;-81
2021/03/18 05:26:51;;;;;;;4.13;3.73;;;;;;;-2.48;86.28;92544.16;1827933;77;21119;-79
2021/03/18 05:29:19;;;;;;;3.80;2.73;;;;;;;-2.45;86.33;92552.77;1817288;78;21084;-80
2021/03/18 05:31:48;;;;;;;3.50;3.20;;;;;;;-2.42;86.11;92549.45;1831409;78;21188;-80
2021/03/18 05:34:16;;;;;;;4.03;3.70;;;;;;;-2.40;86.19;92539.81;1819915;77;21057;-80
2021/03/18 05:36:45;;;;;;;3.00;2.70;;;;;;;-2.37;85.97;92556.42;1817185;79;21037;-82
2021/03/18 05:39:13;;;;;;;3.00;2.80;;;;;;;-2.37;85.42;92554.56;1817118;77;21036;-82
2021/03/18 05:41:41;;;;;;;2.87;2.60;;;;;;;-2.38;85.23;92554.88;1819888;77;22090;-81
2021/03/18 05:44:09;;;;;;;2.97;2.67;;;;;;;-2.41;85.10;92556.32;1837428;78;21314;-79
2021/03/18 05:46:39;;;;;;;3.07;2.77;;;;;;;-2.42;85.23;92569.42;1834109;78;21470;-80
2021/03/18 05:49:08;;;;;;;2.80;2.53;;;;;;;-2.46;84.72;92563.98;1813773;78;21064;-80
2021/03/18 05:51:36;;;;;;;2.87;2.53;;;;;;;-2.47;85.16;92576.31;1825595;78;21060;-81
2021/03/18 05:54:06;;;;;;;1.97;1.80;;;;;;;-2.48;83.90;92569.44;1820801;78;21120;-84
2021/03/18 05:56:34;;;;;;;2.37;2.17;;;;;;;-2.49;84.44;92562.55;1810010;78;21371;-82
2021/03/18 05:59:02;;;;;;;4.03;2.27;;;;;;;-2.48;84.34;92585.41;1817093;79;21610;-82
2021/03/18 06:01:31;;;;;;;2.37;2.17;;;;;;;-2.49;84.38;92585.17;1817100;78;21120;-81
2021/03/18 06:04:01;;;;;;;2.50;2.30;;;;;;;-2.46;84.29;92591.16;1816968;78;21131;-79
2021/03/18 06:06:29;;;;;;;2.80;2.27;;;;;;;-2.43;84.39;92587.07;1792207;78;21597;-82
2021/03/18 06:08:57;;;;;;;2.57;2.37;;;;;;;-2.42;83.72;92593.94;1815513;77;21348;-82
2021/03/18 06:11:25;;;;;;;2.60;2.40;;;;;;;-2.43;83.83;92592.39;1837313;78;21048;-81
2021/03/18 06:13:53;;;;;;;2.80;2.30;;;;;;;-2.36;84.10;92601.94;1833926;78;21128;-81
2021/03/18 06:16:22;;;;;;;2.50;2.30;;;;;;;-2.32;83.88;92606.25;1835165;77;21167;-81
2021/03/18 06:18:50;;;;;;;2.63;2.10;;;;;;;-2.31;83.63;92602.47;1831259;77;21124;-84
2021/03/18 06:21:18;;;;;;;2.57;2.37;;;;;;;-2.30;82.70;92603.25;1824877;78;21206;-81
2021/03/18 06:24:01;;;;;;;2.40;2.20;;;;;;;-2.29;82.57;92604.26;1818188;78;21092;-81
2021/03/18 06:26:36;;;;;;;1.97;1.87;;;;;;;-2.27;82.47;92610.57;1831399;78;21128;-80
2021/03/18 06:29:28;;;;;;;2.00;1.80;;;;;;;-2.17;82.99;92608.80;1817252;79;21044;-83
2021/03/18 06:31:57;;;;;;;2.47;2.23;;;;;;;-2.10;81.88;92606.34;1817046;77;21482;-82
2021/03/18 06:34:41;;;;;;;2.20;2.10;;;;;;;-2.08;81.56;92616.09;1817043;79;21475;-83
2021/03/18 06:37:34;;;;;;;2.90;2.60;;;;;;;-2.04;82.16;92608.98;1817082;78;21155;-83
2021/03/18 06:40:19;;;;;;;2.90;2.63;;;;;;;-1.92;81.98;92610.07;1817074;77;21124;-81
2021/03/18 06:43:01;;;;;;;3.30;2.30;;;;;;;-1.93;80.59;92615.96;1817145;79;21478;-82
2021/03/18 06:45:38;;;;;;;3.20;2.80;;;;;;;-1.90;80.81;92622.52;1823742;78;21116;-82
2021/03/18 06:48:18;;;;;;;3.03;2.73;;;;;;;-1.89;80.33;92612.84;1833739;77;21100;-81
2021/03/18 06:50:47;;;;;;;3.13;2.87;;;;;;;-1.86;80.94;92612.73;1817168;77;21048;-85
2021/03/18 06:53:28;;;;;;;3.07;2.77;;;;;;;-1.80;80.16;92618.06;1837570;78;21175;-81
2021/03/18 06:55:58;;;;;;;3.37;3.07;;;;;;;-1.79;79.84;92616.94;1817597;77;21077;-81
2021/03/18 06:58:27;;;;;;;3.03;2.53;;;;;;;-1.73;79.82;92620.38;1791131;79;21498;-82
2021/03/18 07:01:00;;;;;;;3.03;2.73;;;;;;;-1.71;79.81;92620.80;1824755;78;21490;-81
2021/03/18 07:03:36;;;;;;;2.77;2.47;;;;;;;-1.74;79.37;92626.02;1838815;77;21141;-79
2021/03/18 07:06:07;;;;;;;3.43;3.13;;;;;;;-1.77;79.29;92627.49;1836787;78;21479;-83
2021/03/18 07:08:37;;;;;;;5.60;2.70;;;;;;;-1.77;79.46;92635.48;1836838;78;21056;-80
2021/03/18 07:11:21;;;;;;;2.77;2.53;;;;;;;-1.76;79.29;92633.03;1836556;77;21135;-79
2021/03/18 07:13:50;;;;;;;3.57;3.27;;;;;;;-1.77;79.24;92630.16;1836677;77;21349;-77
2021/03/18 07:16:18;;;;;;;3.63;3.33;;;;;;;-1.80;78.97;92628.16;1836629;77;21179;-79
2021/03/18 07:18:57;;;;;;;3.73;3.07;;;;;;;-1.75;79.61;92637.25;1828983;78;21183;-81
2021/03/18 07:21:39;;;;;;;3.83;3.10;;;;;;;-1.66;79.28;92633.66;1816949;79;21167;-79
2021/03/18 07:24:28;;;;;;;3.80;2.70;;;;;;;-1.61;79.21;92634.78;1818890;78;21060;-78
2021/03/18 07:27:00;;;;;;;3.13;2.47;;;;;;;-1.57;79.48;92635.09;1833136;77;21796;-79
2021/03/18 07:29:29;;;;;;;2.30;2.10;;;;;;;-1.47;79.49;92635.97;1833150;78;21602;-81
2021/03/18 07:31:57;;;;;;;3.10;2.77;;;;;;;-1.34;78.59;92629.24;1819659;77;21479;-81
2021/03/18 07:34:26;;;;;;;3.00;2.70;;;;;;;-1.32;77.89;92633.10;1825723;78;21068;-79
2021/03/18 07:36:58;;;;;;;3.50;2.70;;;;;;;-1.29;78.57;92634.33;1833057;77;21451;-77
2021/03/18 07:39:25;;;;;;;2.83;2.53;;;;;;;-1.28;78.53;92635.34;1833420;78;21393;-84
2021/03/18 07:41:53;;;;;;;4.30;2.77;;;;;;;-1.29;77.70;92628.98;1828144;78;21191;-78
2021/03/18 07:44:21;;;;;;;5.07;3.77;;;;;;;-1.35;78.44;92631.14;1816946;77;21618;-80
2021/03/18 07:46:50;;;;;;;4.03;3.30;;;;;;;-1.33;78.99;92633.45;1827550;78;21578;-79
2021/03/18 07:49:23;;;;;;;3.37;3.07;;;;;;;-1.28;78.96;92635.34;1823287;77;21181;-82
2021/03/18 07:51:54;;;;;;;2.90;2.63;;;;;;;-1.26;77.73;92636.31;1816833;78;21185;-81
2021/03/18 07:54:22;;;;;;;3.83;2.60;;;;;;;-1.32;78.21;92639.77;1816585;79;21305;-80
2021/03/18 07:56:54;;;;;;;2.90;2.60;;;;;;;-1.37;78.19;92634.69;1817043;79;21577;-79
2021/03/18 07:59:33;;;;;;;2.60;2.40;;;;;;;-1.36;78.53;92636.23;1816936;79;21527;-81
2021/03/18 08:02:14;;;;;;;5.20;3.50;;;;;;;-1.34;77.56;92647.91;1816553;79;21183;-79
2021/03/18 08:04:50;;;;;;;3.40;3.10;;;;;;;-1.39;77.89;92644.13;1816582;77;22189;-77
2021/03/18 08:07:47;;;;;;;3.40;3.10;;;;;;;-1.39;78.14;92634.27;1817064;78;21559;-79
2021/03/18 08:10:32;;;;;;;3.12;2.92;;;;;;;-1.34;78.00;92647.35;1817273;79;21044;-82
2021/03/18 08:13:03;;;;;;;3.27;2.80;;;;;;;-1.34;78.20;92645.25;1817331;79;21096;-79
2021/03/18 08:15:45;;;;;;;3.93;3.37;;;;;;;-1.40;77.59;92644.70;1820200;76;21210;-78
2021/03/18 08:18:22;;;;;;;3.13;2.80;;;;;;;-1.38;78.26;92651.81;1837474;77;22229;-77
2021/03/18 08:20:57;;;;;;;3.03;2.73;;;;;;;-1.32;78.15;92647.00;1833871;78;21148;-77
2021/03/18 08:23:32;;;;;;;5.27;2.73;;;;;;;-1.22;78.43;92645.96;1818533;78;21502;-77
2021/03/18 08:26:07;;;;;;;4.37;3.97;;;;;;;-1.10;78.75;92647.80;1816052;79;21350;-78
2021/03/18 08:29:04;;;;;;;4.05;3.70;;;;;;;-0.95;78.67;92641.52;1828422;78;21120;-81
2021/03/18 08:31:47;;;;;;;4.93;4.07;;;;;;;-0.86;78.12;92650.92;1712240;82;21342;-75
2021/03/18 08:34:17;;;;;;;3.83;3.52;;;;;;;-0.85;77.30;92650.36;1741823;81;21114;-78
2021/03/18 08:36:58;;;;;;;4.60;3.63;;;;;;;-0.80;77.23;92651.44;1724832;83;21147;-76
2021/03/18 08:39:48;;;;;;;4.53;3.97;;;;;;;-0.73;77.59;92651.63;1750154;81;21194;-80
2021/03/18 08:42:33;;;;;;;4.40;3.72;;;;;;;-0.70;77.60;92656.84;1750148;81;21563;-81
2021/03/18 08:45:09;;;;;;;4.47;3.33;;;;;;;-0.75;76.35;92657.31;1750313;81;22667;-78
2021/03/18 08:47:42;;;;;;;4.63;3.97;;;;;;;-0.81;77.08;92653.90;1736786;81;21503;-78
2021/03/18 08:50:27;;;;;;;4.17;3.77;;;;;;;-0.83;76.33;92654.25;1749419;81;21509;-78
2021/03/18 08:52:57;;;;;;;5.07;3.93;;;;;;;-0.87;77.10;92663.27;1754666;80;21150;-78
2021/03/18 08:55:42;;;;;;;4.55;3.77;;;;;;;-0.88;77.01;92659.05;1783359;78;21665;-78
2021/03/18 08:58:10;;;;;;;4.20;3.40;;;;;;;-0.85;76.12;92670.38;1794869;80;21435;-79
2021/03/18 09:00:40;;;;;;;6.43;4.17;;;;;;;-0.83;76.46;92666.80;1772460;80;21502;-80
2021/03/18 09:03:08;;;;;;;7.83;4.57;;;;;;;-0.89;75.68;92670.29;1821773;78;21012;-79
2021/03/18 09:05:36;;;;;;;8.10;4.20;;;;;;;-0.91;76.40;92676.52;1814572;78;21118;-79
2021/03/18 09:08:06;;;;;;;7.83;4.70;;;;;;;-0.82;76.60;92671.81;1784351;79;21115;-79
2021/03/18 09:10:37;;;;;;;5.60;4.53;;;;;;;-0.74;75.39;92671.44;1778796;80;21372;-80
2021/03/18 09:13:20;;;;;;;6.63;4.87;;;;;;;-0.68;76.21;92670.61;1778126;80;21668;-79
2021/03/18 09:15:52;;;;;;;6.23;5.53;;;;;;;-0.58;76.23;92679.47;1778010;80;21068;-76
2021/03/18 09:18:27;;;;;;;8.77;5.43;;;;;;;-0.55;74.63;92678.78;1775407;80;21156;-76
2021/03/18 09:21:09;;;;;;;5.25;4.35;;;;;;;-0.57;74.59;92677.77;1770296;81;21096;-76
2021/03/18 09:23:40;;;;;;;4.78;4.20;;;;;;;-0.48;75.60;92673.63;1777562;80;21378;-80
2021/03/18 09:26:11;;;;;;;5.42;4.20;;;;;;;-0.30;74.14;92682.05;1761183;80;21222;-79
2021/03/18 09:28:46;;;;;;;5.97;4.55;;;;;;;-0.21;74.38;92683.23;1755544;80;21507;-79
2021/03/18 09:31:14;;;;;;;4.92;3.85;;;;;;;-0.13;73.32;92683.63;1781439;80;21122;-80
2021/03/18 09:33:44;;;;;;;4.40;3.98;;;;;;;0.01;73.88;92687.20;1791336;80;21637;-75
2021/03/18 09:36:20;;;;;;;8.35;4.10;;;;;;;0.13;74.03;92683.86;1784871;78;22086;-78
2021/03/18 09:39:10;;;;;;;4.92;3.65;;;;;;;0.24;73.24;92691.56;1777145;80;21155;-76
2021/03/18 09:41:49;;;;;;;5.00;3.65;;;;;;;0.27;71.77;92685.31;1777030;80;21060;-77
2021/03/18 09:44:25;;;;;;;6.00;4.12;;;;;;;0.33;70.44;92697.28;1773208;80;21115;-77
2021/03/18 09:46:56;;;;;;;5.53;4.40;;;;;;;0.33;70.96;92691.93;1781939;80;21582;-78
2021/03/18 09:49:41;;;;;;;6.20;4.20;;;;;;;0.49;71.78;92692.69;1781528;80;21370;-75
2021/03/18 09:52:19;;;;;;;4.28;3.47;;;;;;;0.55;69.93;92693.95;1769205;81;21166;-81
2021/03/18 09:54:49;;;;;;;5.55;3.65;;;;;;;0.63;68.64;92689.52;1784303;80;21088;-75
2021/03/18 09:57:18;;;;;;;7.20;4.08;;;;;;;0.66;70.11;92698.20;1775611;80;21179;-77
2021/03/18 10:00:08;;;;;;;6.35;4.00;;;;;;;0.73;70.23;92703.70;1800973;77;21088;-78
2021/03/18 10:02:36;;;;;;;4.60;3.08;;;;;;;0.78;69.84;92691.37;1823790;78;21136;-78
2021/03/18 10:05:06;;;;;;;5.47;3.85;;;;;;;0.83;67.81;92705.03;1843390;77;21136;-75
2021/03/18 10:07:34;;;;;;;4.95;3.47;;;;;;;0.78;68.70;92698.63;1752737;79;21560;-76
2021/03/18 10:10:05;;;;;;;4.22;3.47;;;;;;;0.84;68.26;92703.92;1771475;80;21122;-76
2021/03/18 10:12:33;;;;;;;5.95;3.83;;;;;;;0.83;67.54;92697.00;1789138;77;21115;-74
2021/03/18 10:15:06;;;;;;;3.62;3.25;;;;;;;0.87;68.89;92699.22;1837675;78;21566;-79
2021/03/18 10:17:37;;;;;;;4.40;3.15;;;;;;;0.98;68.17;92706.90;1779982;80;21491;-78
2021/03/18 10:20:32;;;;;;;3.85;3.33;;;;;;;1.10;68.79;92693.36;1799663;79;21068;-74
2021/03/18 10:23:05;;;;;;;6.50;3.95;;;;;;;1.12;68.22;92705.05;1803252;79;21144;-80
2021/03/18 10:25:35;;;;;;;5.45;3.75;;;;;;;1.16;68.82;92705.89;1801622;79;21111;-78
2021/03/18 10:28:12;;;;;;;3.80;3.40;;;;;;;1.26;67.65;92701.31;1808235;79;21349;-77
2021/03/18 10:30:46;;;;;;;4.08;3.12;;;;;;;1.25;67.71;92701.11;1839489;77;21148;-80
2021/03/18 10:33:24;;;;;;;5.33;3.83;;;;;;;1.28;67.61;92692.37;1865703;75;21033;-76
2021/03/18 10:35:57;;;;;;;3.92;3.35;;;;;;;1.34;65.91;92697.64;1796502;79;21112;-75
2021/03/18 10:38:36;;;;;;;3.95;3.42;;;;;;;1.29;65.32;92699.84;1803356;79;21036;-81
2021/03/18 10:41:08;;;;;;;5.20;4.08;;;;;;;1.17;64.83;92700.20;1757011;79;22139;-78
2021/03/18 10:43:46;;;;;;;3.95;3.55;;;;;;;1.02;66.12;92701.05;1846164;75;21493;-79
2021/03/18 10:46:17;;;;;;;3.75;3.45;;;;;;;1.11;67.39;92698.16;1851542;75;21084;-78
2021/03/18 10:48:47;;;;;;;3.92;3.42;;;;;;;1.24;66.55;92698.20;1787736;79;21073;-76
2021/03/18 10:51:17;;;;;;;3.70;3.40;;;;;;;1.34;65.13;92696.87;1709268;79;21064;-76
2021/03/18 10:53:45;;;;;;;5.30;2.95;;;;;;;1.35;65.62;92696.50;1817748;77;21358;-78
2021/03/18 10:56:22;;;;;;;4.17;2.90;;;;;;;1.33;65.02;92688.62;1814330;79;21602;-78
2021/03/18 10:58:45;;;;;;;3.95;3.20;;;;;;;1.24;63.89;92685.38;1793575;77;21169;-78
2021/03/18 11:01:20;;;;;;;7.37;4.22;;;;;;;1.15;64.80;92689.05;1729629;82;21148;-77
2021/03/18 11:03:49;;;;;;;4.05;3.37;;;;;;;1.14;65.60;92683.50;1775532;77;21088;-74
2021/03/18 11:06:23;;;;;;;5.22;3.75;;;;;;;1.15;65.43;92688.28;1813888;79;22570;-81
2021/03/18 11:08:53;;;;;;;6.15;3.70;;;;;;;1.25;64.73;92678.34;1848377;77;21562;-77
2021/03/18 11:11:27;;;;;;;4.40;3.65;;;;;;;1.30;64.99;92681.30;1780110;79;34090;-78
2021/03/18 11:14:10;;;;;;;3.67;3.33;;;;;;;1.27;65.20;92689.47;1836135;77;21053;-76
2021/03/18 11:16:38;;;;;;;4.95;3.22;;;;;;;1.21;64.01;92692.23;1828245;76;21101;-79
2021/03/18 11:19:13;;;;;;;3.80;3.10;;;;;;;1.10;64.34;92688.01;1758429;79;22314;-76
2021/03/18 11:21:46;;;;;;;3.77;3.30;;;;;;;1.02;65.59;92690.34;1792193;79;21190;-76
2021/03/18 11:24:14;;;;;;;4.42;3.77;;;;;;;1.11;64.12;92687.44;1779647;80;21155;-76
2021/03/18 11:26:59;;;;;;;6.42;3.58;;;;;;;1.15;64.47;92685.04;1800590;79;21044;-79
2021/03/18 11:29:30;;;;;;;5.45;3.70;;;;;;;1.27;65.32;92679.32;1830125;78;21053;-79
2021/03/18 11:32:01;;;;;;;3.85;3.12;;;;;;;1.44;66.06;92678.88;1757589;79;21197;-81
2021/03/18 11:34:34;;;;;;;3.25;2.95;;;;;;;1.63;64.83;92674.81;1790866;78;21151;-81
2021/03/18 11:37:05;;;;;;;4.03;2.85;;;;;;;1.72;61.12;92666.53;1784383;79;21123;-77
2021/03/18 11:39:33;;;;;;;3.35;3.00;;;;;;;1.66;62.23;92666.07;1846565;77;21139;-78
2021/03/18 11:42:01;;;;;;;3.45;3.15;;;;;;;1.76;62.22;92667.36;1803454;79;21096;-79
2021/03/18 11:44:31;;;;;;;3.95;3.50;;;;;;;1.92;61.99;92664.58;1840809;77;22316;-77
2021/03/18 11:47:13;;;;;;;3.45;3.00;;;;;;;2.03;62.20;92664.73;1806845;78;21060;-79
2021/03/18 11:49:43;;;;;;;3.80;3.05;;;;;;;2.11;62.95;92661.81;1842309;77;21107;-76
2021/03/18 11:52:12;;;;;;;5.45;3.30;;;;;;;2.22;61.03;92662.52;1810764;79;21091;-81
2021/03/18 11:54:40;;;;;;;3.50;3.20;;;;;;;2.18;61.63;92663.81;1834931;77;21143;-78
2021/03/18 11:57:08;;;;;;;5.28;3.87;;;;;;;1.94;59.94;92663.07;1806037;79;21368;-77
2021/03/18 11:59:37;;;;;;;4.28;3.75;;;;;;;1.55;61.60;92657.64;1840750;77;21057;-78